createdAt,value
2023-04-03T00:01:03.697Z,98655.75
2023-04-03T00:04:11.275Z,98653.97
2023-04-03T00:07:17.075Z,98663.19
2023-04-03T00:10:26.703Z,98659.06
2023-04-03T00:13:32.624Z,98665.97
2023-04-03T00:16:39.280Z,98659.78
2023-04-03T00:19:44.977Z,98655.50
2023-04-03T00:22:51.840Z,98660.44
2023-04-03T00:26:00.706Z,98658.25
2023-04-03T00:29:07.767Z,98668.63
2023-04-03T00:32:13.820Z,98650.16
2023-04-03T00:35:21.373Z,98660.38
2023-04-03T00:38:27.253Z,98666.38
2023-04-03T00:41:36.739Z,98659.66
2023-04-03T00:45:32.949Z,98668.84
2023-04-03T00:48:46.978Z,98663.53
2023-04-03T00:51:53.390Z,98667.84
2023-04-03T00:55:08.183Z,98663.59
2023-04-03T00:58:19.747Z,98675.69
2023-04-03T01:01:34.763Z,98671.31
2023-04-03T01:04:44.121Z,98674.75
2023-04-03T01:07:55.355Z,98667.91
2023-04-03T01:11:02.010Z,98666.91
2023-04-03T01:14:11.476Z,98680.84
2023-04-03T01:17:34.067Z,98676.84
2023-04-03T01:21:46.301Z,98676.84
2023-04-03T01:24:52.527Z,98673.94
2023-04-03T01:27:59.728Z,98648.44
2023-04-03T01:31:26.571Z,98678.88
2023-04-03T01:34:37.812Z,98692.69
2023-04-03T01:37:44.217Z,98685.84
2023-04-03T01:40:50.896Z,98692.75
2023-04-03T01:43:56.961Z,98700.72
2023-04-03T01:47:03.572Z,98723.16
2023-04-03T01:50:13.974Z,98702.41
2023-04-03T01:53:21.179Z,98699.78
2023-04-03T01:56:27.999Z,98700.84
2023-04-03T01:59:35.939Z,98698.22
2023-04-03T02:02:42.240Z,98711.78
2023-04-03T02:05:51.609Z,98717.16
2023-04-03T02:08:57.456Z,98703.81
2023-04-03T02:12:04.456Z,98710.81
2023-04-03T02:15:12.759Z,98701.34
2023-04-03T02:18:21.174Z,98710.00
2023-04-03T02:21:29.757Z,98703.94
2023-04-03T02:24:36.931Z,98730.91
2023-04-03T02:27:43.022Z,98709.38
2023-04-03T02:30:51.030Z,98721.41
2023-04-03T02:33:57.575Z,98716.34
2023-04-03T02:37:07.609Z,98722.41
2023-04-03T02:40:14.965Z,98717.91
2023-04-03T02:43:22.248Z,98714.56
2023-04-03T02:46:28.449Z,98716.91
2023-04-03T02:49:36.628Z,98710.88
2023-04-03T02:52:45.147Z,98718.81
2023-04-03T02:55:52.259Z,98708.50
2023-04-03T02:58:58.626Z,98718.63
2023-04-03T03:02:05.985Z,98726.28
2023-04-03T03:05:13.268Z,98721.34
2023-04-03T03:08:22.908Z,98709.13
2023-04-03T03:11:29.093Z,98725.78
2023-04-03T03:14:35.889Z,98726.66
2023-04-03T03:17:42.006Z,98733.03
2023-04-03T03:20:48.764Z,98717.38
2023-04-03T03:23:57.442Z,98739.56
2023-04-03T03:27:04.260Z,98723.31
2023-04-03T03:30:12.129Z,98725.72
2023-04-03T03:33:18.751Z,98735.09
2023-04-03T03:36:25.074Z,98740.22
2023-04-03T03:39:34.646Z,98748.44
2023-04-03T03:42:40.473Z,98754.38
2023-04-03T03:45:48.079Z,98758.59
2023-04-03T03:48:54.223Z,98745.84
2023-04-03T03:52:01.010Z,98744.13
2023-04-03T03:55:11.049Z,98745.13
2023-04-03T03:58:17.575Z,98759.66
2023-04-03T04:01:23.668Z,98763.06
2023-04-03T04:04:30.920Z,98765.03
2023-04-03T04:07:36.878Z,98777.28
2023-04-03T04:10:46.745Z,98761.75
2023-04-03T04:13:54.736Z,98767.06
2023-04-03T04:17:06.355Z,98775.81
2023-04-03T04:20:13.702Z,98760.25
2023-04-03T04:23:22.288Z,98772.53
2023-04-03T04:26:32.565Z,98771.59
2023-04-03T04:29:39.413Z,98777.56
2023-04-03T04:32:48.206Z,98788.16
2023-04-03T04:35:54.944Z,98778.81
2023-04-03T04:39:01.524Z,98742.13
2023-04-03T04:42:15.121Z,98794.34
2023-04-03T04:45:24.345Z,98800.50
2023-04-03T04:48:32.726Z,98805.72
2023-04-03T04:51:51.051Z,98797.91
2023-04-03T04:55:01.397Z,98791.19
2023-04-03T04:58:10.079Z,98811.66
2023-04-03T05:01:17.265Z,98810.13
2023-04-03T05:04:34.531Z,98818.66
2023-04-03T05:07:48.239Z,98828.88
2023-04-03T05:11:00.676Z,98819.38
2023-04-03T05:14:11.072Z,98816.19
2023-04-03T05:17:16.979Z,98827.56
2023-04-03T05:20:29.421Z,98834.28
2023-04-03T05:23:35.221Z,98829.06
2023-04-03T05:26:43.510Z,98822.22
2023-04-03T05:29:52.969Z,98830.78
2023-04-03T05:33:03.544Z,98841.44
2023-04-03T05:36:32.840Z,98849.25
2023-04-03T05:39:45.222Z,98830.44
2023-04-03T05:42:51.448Z,98841.53
2023-04-03T05:46:03.011Z,98844.94
2023-04-03T05:49:09.400Z,98850.25
2023-04-03T05:52:27.744Z,98856.31
2023-04-03T05:55:34.013Z,98846.78
2023-04-03T05:58:40.690Z,98854.34
2023-04-03T06:01:49.438Z,98858.72
2023-04-03T06:04:57.075Z,98847.38
2023-04-03T06:08:03.137Z,98851.63
2023-04-03T06:11:11.437Z,98860.97
2023-04-03T06:14:23.395Z,98868.66
2023-04-03T06:17:33.166Z,98868.69
2023-04-03T06:20:39.045Z,98864.25
2023-04-03T06:23:46.001Z,98878.66
2023-04-03T06:26:52.642Z,98887.28
2023-04-03T06:29:59.417Z,98885.47
2023-04-03T06:33:08.425Z,98877.59
2023-04-03T06:36:16.794Z,98886.09
2023-04-03T06:39:25.662Z,98886.91
2023-04-03T06:42:32.597Z,98887.13
2023-04-03T06:45:48.220Z,98895.78
2023-04-03T06:48:57.972Z,98881.38
2023-04-03T06:52:03.751Z,98899.53
2023-04-03T06:55:11.827Z,98901.13
2023-04-03T06:58:19.880Z,98913.47
2023-04-03T07:01:31.282Z,98917.69
2023-04-03T07:04:39.774Z,98914.59
2023-04-03T07:07:46.616Z,98926.63
2023-04-03T07:10:52.435Z,98928.28
2023-04-03T07:13:59.042Z,98945.19
2023-04-03T07:17:04.704Z,98948.66
2023-04-03T07:20:16.493Z,98928.41
2023-04-03T07:23:22.569Z,98936.78
2023-04-03T07:26:29.293Z,98939.38
2023-04-03T07:29:35.112Z,98936.84
2023-04-03T07:32:41.871Z,98964.50
2023-04-03T07:35:51.385Z,98940.75
2023-04-03T07:38:57.801Z,98962.50
2023-04-03T07:42:10.707Z,98961.53
2023-04-03T07:45:18.648Z,98945.25
2023-04-03T07:48:26.807Z,98943.50
2023-04-03T07:51:36.668Z,98945.63
2023-04-03T07:54:42.801Z,98936.03
2023-04-03T07:57:49.343Z,98949.44
2023-04-03T08:00:58.027Z,98945.13
2023-04-03T08:04:04.972Z,98946.66
2023-04-03T08:07:13.368Z,98952.59
2023-04-03T08:10:20.179Z,98957.25
2023-04-03T08:13:26.945Z,98950.34
2023-04-03T08:16:33.503Z,98951.16
2023-04-03T08:19:39.767Z,98948.84
2023-04-03T08:22:49.661Z,98947.06
2023-04-03T08:25:55.385Z,98959.25
2023-04-03T08:29:02.012Z,98970.75
2023-04-03T08:32:08.200Z,98956.00
2023-04-03T08:35:15.795Z,98956.00
2023-04-03T08:38:24.401Z,98974.91
2023-04-03T08:41:41.165Z,98968.03
2023-04-03T08:44:59.148Z,98969.72
2023-04-03T08:48:11.685Z,98983.44
2023-04-03T08:51:21.803Z,98973.53
2023-04-03T08:54:39.648Z,98961.47
2023-04-03T08:57:50.341Z,98959.69
2023-04-03T09:01:05.312Z,98973.25
2023-04-03T09:04:20.329Z,98968.16
2023-04-03T09:07:43.326Z,98985.34
2023-04-03T09:10:53.357Z,98987.19
2023-04-03T09:14:12.153Z,98964.44
2023-04-03T09:17:38.743Z,99000.75
2023-04-03T09:20:58.570Z,98973.97
2023-04-03T09:24:10.566Z,98972.94
2023-04-03T09:27:20.012Z,98973.66
2023-04-03T09:30:28.809Z,98974.13
2023-04-03T09:33:35.629Z,99009.63
2023-04-03T09:36:48.501Z,98990.94
2023-04-03T09:39:57.996Z,98984.94
2023-04-03T09:43:25.733Z,98983.72
2023-04-03T09:46:39.042Z,98997.13
2023-04-03T09:49:44.863Z,98992.88
2023-04-03T09:52:54.328Z,98997.75
2023-04-03T09:56:01.320Z,98983.66
2023-04-03T09:59:21.639Z,99013.78
2023-04-03T10:02:41.114Z,98991.19
2023-04-03T10:05:47.729Z,98987.28
2023-04-03T10:09:05.769Z,99011.03
2023-04-03T10:12:15.836Z,99010.88
2023-04-03T10:15:24.765Z,99027.34
2023-04-03T10:18:43.502Z,99014.34
2023-04-03T10:22:01.960Z,99003.47
2023-04-03T10:25:21.923Z,99008.59
2023-04-03T10:28:42.692Z,99018.31
2023-04-03T10:32:07.413Z,98997.41
2023-04-03T10:35:29.659Z,98994.41
2023-04-03T10:38:53.118Z,98985.47
2023-04-03T10:42:17.929Z,98939.59
2023-04-03T10:45:36.831Z,98994.06
2023-04-03T10:49:14.915Z,98982.66
2023-04-03T10:52:34.353Z,98949.81
2023-04-03T10:55:55.954Z,98973.88
2023-04-03T10:59:19.775Z,98958.84
2023-04-03T11:02:31.930Z,98971.28
2023-04-03T11:05:51.878Z,98974.97
2023-04-03T11:09:08.027Z,98962.41
2023-04-03T11:12:24.960Z,98956.78
2023-04-03T11:15:37.484Z,98977.63
2023-04-03T11:18:54.097Z,98959.94
2023-04-03T11:22:15.317Z,98968.72
2023-04-03T11:25:27.826Z,98986.22
2023-04-03T11:28:33.551Z,98962.97
2023-04-03T11:32:33.011Z,98984.38
2023-04-03T11:35:41.650Z,98967.38
2023-04-03T11:38:58.620Z,98961.22
2023-04-03T11:42:27.935Z,98972.78
2023-04-03T11:45:43.004Z,98949.31
2023-04-03T11:48:57.750Z,98967.44
2023-04-03T11:52:04.248Z,98955.03
2023-04-03T11:56:04.509Z,98935.97
2023-04-03T11:59:30.008Z,98937.97
2023-04-03T12:02:53.858Z,98907.75
2023-04-03T12:06:37.143Z,98951.69
2023-04-03T12:10:31.581Z,98941.03
2023-04-03T12:13:41.027Z,98951.22
2023-04-03T12:16:53.235Z,98943.22
2023-04-03T12:20:00.407Z,98927.97
2023-04-03T12:23:27.590Z,98938.88
2023-04-03T12:26:49.124Z,98951.34
2023-04-03T12:30:08.207Z,98943.59
2023-04-03T12:33:36.907Z,98919.56
2023-04-03T12:36:59.680Z,98914.78
2023-04-03T12:40:20.850Z,98929.53
2023-04-03T12:43:59.835Z,98936.41
2023-04-03T12:47:23.604Z,98936.94
2023-04-03T12:50:35.286Z,98936.41
2023-04-03T12:53:44.173Z,98929.16
2023-04-03T12:56:50.453Z,98914.00
2023-04-03T12:59:59.869Z,98945.47
2023-04-03T13:03:09.367Z,98928.13
2023-04-03T13:06:25.291Z,98931.22
2023-04-03T13:09:33.856Z,98935.63
2023-04-03T13:12:51.802Z,98927.41
2023-04-03T13:16:01.667Z,98910.91
2023-04-03T13:19:08.207Z,98917.31
2023-04-03T13:22:35.457Z,98919.69
2023-04-03T13:25:49.333Z,98921.84
2023-04-03T13:28:55.540Z,98934.94
2023-04-03T13:32:08.677Z,98918.19
2023-04-03T13:35:33.431Z,98916.88
2023-04-03T13:38:40.664Z,98917.63
2023-04-03T13:41:53.438Z,98930.28
2023-04-03T13:45:26.055Z,98921.88
2023-04-03T13:48:45.457Z,98943.94
2023-04-03T13:52:04.355Z,98939.84
2023-04-03T13:55:27.099Z,98940.63
2023-04-03T13:58:35.835Z,98927.06
2023-04-03T14:01:52.165Z,98945.06
2023-04-03T14:05:05.498Z,98932.47
2023-04-03T14:08:11.411Z,98963.97
2023-04-03T14:11:25.053Z,98942.91
2023-04-03T14:14:37.476Z,98947.19
2023-04-03T14:17:44.117Z,98945.53
2023-04-03T14:20:54.240Z,98953.22
2023-04-03T14:24:00.882Z,98942.50
2023-04-03T14:27:07.324Z,98936.41
2023-04-03T14:30:21.956Z,98961.78
2023-04-03T14:33:29.332Z,98951.66
2023-04-03T14:36:39.539Z,98930.53
2023-04-03T14:39:47.258Z,98953.91
2023-04-03T14:42:56.482Z,98948.22
2023-04-03T14:46:02.926Z,98941.66
2023-04-03T14:49:20.119Z,98944.69
2023-04-03T14:52:32.691Z,98932.09
2023-04-03T14:55:39.464Z,98960.31
2023-04-03T14:58:45.184Z,98949.28
2023-04-03T15:01:52.411Z,98951.22
2023-04-03T15:04:58.431Z,98966.13
2023-04-03T15:08:08.093Z,98956.56
2023-04-03T15:11:15.472Z,98974.75
2023-04-03T15:14:35.681Z,98957.09
2023-04-03T15:17:45.186Z,98958.34
2023-04-03T15:20:53.120Z,98961.44
2023-04-03T15:24:02.208Z,98953.13
2023-04-03T15:27:08.980Z,98976.63
2023-04-03T15:30:20.933Z,98971.78
2023-04-03T15:33:27.699Z,98951.13
2023-04-03T15:36:34.885Z,98957.19
2023-04-03T15:39:44.373Z,98947.00
2023-04-03T15:42:51.303Z,98958.84
2023-04-03T15:46:03.178Z,98961.44
2023-04-03T15:49:09.918Z,98970.91
2023-04-03T15:52:16.624Z,98956.31
2023-04-03T15:55:25.624Z,98954.56
2023-04-03T15:58:32.656Z,98962.88
2023-04-03T16:01:38.960Z,98979.03
2023-04-03T16:04:46.267Z,98953.78
2023-04-03T16:07:52.445Z,98964.25
2023-04-03T16:11:02.135Z,98959.34
2023-04-03T16:14:08.029Z,98963.41
2023-04-03T16:17:15.316Z,98974.75
2023-04-03T16:20:23.687Z,98980.66
2023-04-03T16:23:30.628Z,98961.59
2023-04-03T16:26:39.214Z,98964.97
2023-04-03T16:29:45.960Z,98960.50
2023-04-03T16:32:52.472Z,98965.78
2023-04-03T16:35:59.260Z,98986.97
2023-04-03T16:39:05.490Z,98982.13
2023-04-03T16:42:15.582Z,98982.59
2023-04-03T16:45:21.771Z,98976.44
2023-04-03T16:48:28.439Z,98965.25
2023-04-03T16:51:34.941Z,98980.84
2023-04-03T16:54:42.314Z,98968.66
2023-04-03T16:57:51.496Z,98991.31
2023-04-03T17:00:58.224Z,98982.91
2023-04-03T17:04:04.190Z,98973.91
2023-04-03T17:07:10.883Z,98990.44
2023-04-03T17:10:19.307Z,98974.22
2023-04-03T17:13:33.324Z,98979.41
2023-04-03T17:16:41.609Z,98986.53
2023-04-03T17:19:49.474Z,98981.34
2023-04-03T17:22:56.036Z,98989.19
2023-04-03T17:26:02.689Z,98999.38
2023-04-03T17:29:12.132Z,98996.19
2023-04-03T17:32:18.943Z,99006.47
2023-04-03T17:35:24.890Z,99009.19
2023-04-03T17:38:32.021Z,99008.25
2023-04-03T17:41:37.854Z,99019.00
2023-04-03T17:44:47.617Z,99014.72
2023-04-03T17:47:55.385Z,99023.50
2023-04-03T17:51:02.309Z,99010.53
2023-04-03T17:54:08.202Z,98999.59
2023-04-03T17:57:15.210Z,99004.53
2023-04-03T18:00:24.785Z,99015.78
2023-04-03T18:03:31.661Z,99011.44
2023-04-03T18:06:44.914Z,99021.81
2023-04-03T18:09:56.484Z,99035.81
2023-04-03T18:13:02.822Z,99021.16
2023-04-03T18:16:16.905Z,99013.72
2023-04-03T18:19:23.976Z,99025.69
2023-04-03T18:22:32.832Z,99020.38
2023-04-03T18:25:40.676Z,99038.44
2023-04-03T18:28:54.025Z,99044.50
2023-04-03T18:32:07.056Z,99036.56
2023-04-03T18:35:14.682Z,99012.75
2023-04-03T18:38:23.591Z,99042.44
2023-04-03T18:41:37.213Z,99037.59
2023-04-03T18:44:47.892Z,99053.38
2023-04-03T18:48:00.125Z,99056.72
2023-04-03T18:51:06.425Z,99040.28
2023-04-03T18:54:13.503Z,99035.81
2023-04-03T18:57:19.501Z,99043.44
2023-04-03T19:00:26.401Z,99042.38
2023-04-03T19:03:38.912Z,99038.38
2023-04-03T19:06:46.105Z,99034.06
2023-04-03T19:09:52.495Z,99043.00
2023-04-03T19:12:59.040Z,99029.03
2023-04-03T19:16:04.819Z,99051.59
2023-04-03T19:19:14.547Z,99042.13
2023-04-03T19:22:20.284Z,99037.78
2023-04-03T19:25:27.297Z,99035.94
2023-04-03T19:28:33.851Z,99024.72
2023-04-03T19:31:43.748Z,99023.91
2023-04-03T19:34:52.287Z,99030.75
2023-04-03T19:37:59.039Z,99038.41
2023-04-03T19:41:07.035Z,99036.81
2023-04-03T19:44:14.253Z,99031.00
2023-04-03T19:47:22.635Z,99052.59
2023-04-03T19:50:33.193Z,99044.88
2023-04-03T19:53:39.672Z,99043.03
2023-04-03T19:56:47.687Z,99035.34
2023-04-03T19:59:53.533Z,99036.38
2023-04-03T20:03:00.526Z,99039.75
2023-04-03T20:06:09.552Z,99036.19
2023-04-03T20:09:20.116Z,99028.38
2023-04-03T20:12:29.473Z,99019.03
2023-04-03T20:16:03.610Z,99024.22
2023-04-03T20:19:27.054Z,99028.56
2023-04-03T20:22:39.947Z,99024.34
2023-04-03T20:25:57.690Z,99017.53
2023-04-03T20:29:09.037Z,99017.53
2023-04-03T20:32:17.005Z,99031.25
2023-04-03T20:35:23.604Z,99026.97
2023-04-03T20:38:32.238Z,99030.34
2023-04-03T20:41:39.841Z,99023.44
2023-04-03T20:44:46.489Z,99021.06
2023-04-03T20:47:54.214Z,99027.09
2023-04-03T20:51:00.343Z,99036.59
2023-04-03T20:54:10.019Z,99042.72
2023-04-03T20:57:15.934Z,99028.22
2023-04-03T21:00:23.803Z,99041.06
2023-04-03T21:03:33.026Z,99045.44
2023-04-03T21:07:38.126Z,99044.59
2023-04-03T21:11:39.844Z,99042.84
2023-04-03T21:15:45.616Z,99045.44
2023-04-03T21:19:12.721Z,99049.84
2023-04-03T21:22:19.520Z,99056.81
2023-04-03T21:25:25.396Z,99050.75
2023-04-03T21:28:32.966Z,99050.97
2023-04-03T21:31:58.055Z,99055.22
2023-04-03T21:35:09.862Z,99057.28
2023-04-03T21:38:15.936Z,99052.25
2023-04-03T21:41:22.421Z,99058.31
2023-04-03T21:44:29.065Z,99044.56
2023-04-03T21:47:35.913Z,99042.06
2023-04-03T21:50:44.394Z,99067.16
2023-04-03T21:53:54.726Z,99046.44
2023-04-03T21:57:00.435Z,99032.72
2023-04-03T22:00:11.203Z,99047.28
2023-04-03T22:03:24.361Z,99049.03
2023-04-03T22:06:33.775Z,99038.03
2023-04-03T22:09:39.862Z,99037.34
2023-04-03T22:12:46.882Z,99036.75
2023-04-03T22:15:52.842Z,99032.44
2023-04-03T22:18:59.983Z,99037.69
2023-04-03T22:22:09.254Z,99026.50
2023-04-03T22:25:16.104Z,99018.84
2023-04-03T22:28:22.324Z,99027.53
2023-04-03T22:31:29.190Z,99018.19
2023-04-03T22:34:35.304Z,99026.84
2023-04-03T22:37:45.071Z,99022.53
2023-04-03T22:40:51.022Z,99011.44
2023-04-03T22:43:58.087Z,99009.81
2023-04-03T22:47:03.946Z,99008.97
2023-04-03T22:50:11.557Z,99014.03
2023-04-03T22:53:20.413Z,98996.09
2023-04-03T22:56:27.002Z,99010.59
2023-04-03T22:59:33.188Z,99004.59
2023-04-03T23:02:39.874Z,99003.13
2023-04-03T23:05:45.583Z,98999.63
2023-04-03T23:08:55.048Z,98978.03
2023-04-03T23:12:00.818Z,98987.56
2023-04-03T23:15:08.449Z,98984.97
2023-04-03T23:18:14.027Z,98961.81
2023-04-03T23:21:20.574Z,98973.78
2023-04-03T23:24:29.062Z,98963.47
2023-04-03T23:27:35.557Z,98965.44
2023-04-03T23:30:42.454Z,98956.84
2023-04-03T23:33:49.156Z,98959.47
2023-04-03T23:36:54.786Z,98950.94
2023-04-03T23:40:04.400Z,98948.41
2023-04-03T23:43:10.136Z,98941.56
2023-04-03T23:46:16.876Z,98888.53
2023-04-03T23:49:22.847Z,98941.59
2023-04-03T23:52:30.884Z,98929.75
2023-04-03T23:55:39.720Z,98932.28
2023-04-03T23:58:46.642Z,98940.91
